Covington, Washington
Current Conditions -  °F | °C
As of 6:53 PM on Saturday 25 Oct 2014 (Local Time) from KSEA Reporting Station
Light Rain Light Rain  
Wind Chill: 58°   Ceiling: 3600
Heat Index: 58°   Visibility: 6mi
Dew Point: 52°   Wind: 21mph
Humidity: 81%   Direction: 200°SSW
Pressure: 29.33"   Gusts: 35mph
Location:  47.3596°N, 122.107°W
Report Text: KSEA 260153Z 20018G30KT 6SM -RA BKN036 OVC044 14/11 A2933 RMK AO2 PK WND 20030/0144 SLP936 P0009 T01440111
Loading
Personal Weather Stations






























Interactive Weather Map
Tropical Storm Tracking
New forecast layout! Learn more

10-Day Weather Forecast

Advertisements
Track Severe Weather on mobile